createdAt,value
2022-11-24T00:01:06.201Z,2.67
2022-11-24T00:03:33.163Z,2.60
2022-11-24T00:06:07.744Z,2.15
2022-11-24T00:08:39.231Z,2.20
2022-11-24T00:11:17.469Z,3.03
2022-11-24T00:13:44.243Z,2.45
2022-11-24T00:16:13.271Z,2.38
2022-11-24T00:18:41.907Z,2.17
2022-11-24T00:21:08.756Z,2.93
2022-11-24T00:23:36.004Z,2.28
2022-11-24T00:26:12.970Z,2.40
2022-11-24T00:28:40.563Z,2.45
2022-11-24T00:31:19.776Z,2.00
2022-11-24T00:33:48.320Z,1.93
2022-11-24T00:36:16.133Z,1.85
2022-11-24T00:38:42.965Z,2.05
2022-11-24T00:41:09.510Z,1.70
2022-11-24T00:43:36.003Z,2.08
2022-11-24T00:46:02.835Z,2.10
2022-11-24T00:48:30.486Z,1.85
2022-11-24T00:51:02.597Z,2.22
2022-11-24T00:53:29.273Z,2.10
2022-11-24T00:55:56.022Z,2.05
2022-11-24T00:58:23.680Z,2.20
2022-11-24T01:00:50.934Z,2.22
2022-11-24T01:03:18.970Z,2.45
2022-11-24T01:05:45.662Z,1.70
2022-11-24T01:08:12.740Z,1.80
2022-11-24T01:10:39.381Z,2.10
2022-11-24T01:13:06.020Z,2.15
2022-11-24T01:15:35.709Z,2.25
2022-11-24T01:18:02.780Z,3.42
2022-11-24T01:20:29.504Z,2.22
2022-11-24T01:22:56.011Z,2.23
2022-11-24T01:25:22.526Z,2.03
2022-11-24T01:27:49.034Z,2.13
2022-11-24T01:30:15.598Z,2.00
2022-11-24T01:32:42.170Z,2.00
2022-11-24T01:35:09.388Z,2.00
2022-11-24T01:37:35.896Z,1.75
2022-11-24T01:40:02.419Z,2.63
2022-11-24T01:42:39.925Z,2.40
2022-11-24T01:45:31.262Z,2.72
2022-11-24T01:47:59.069Z,1.90
2022-11-24T01:50:25.921Z,2.05
2022-11-24T01:52:55.403Z,2.08
2022-11-24T01:55:28.551Z,2.30
2022-11-24T01:58:11.304Z,1.60
2022-11-24T02:00:39.604Z,2.27
2022-11-24T02:03:07.267Z,2.30
2022-11-24T02:05:41.576Z,1.80
2022-11-24T02:08:16.213Z,1.85
2022-11-24T02:10:44.133Z,1.75
2022-11-24T02:13:10.786Z,1.83
2022-11-24T02:15:37.359Z,2.22
2022-11-24T02:18:04.183Z,1.45
2022-11-24T02:20:30.759Z,1.50
2022-11-24T02:23:05.415Z,2.15
2022-11-24T02:25:56.612Z,1.93
2022-11-24T02:28:26.793Z,2.55
2022-11-24T02:30:54.245Z,1.00
2022-11-24T02:33:22.539Z,1.33
2022-11-24T02:35:49.062Z,1.13
2022-11-24T02:38:15.582Z,1.33
2022-11-24T02:40:46.682Z,1.50
2022-11-24T02:43:17.898Z,1.63
2022-11-24T02:45:44.424Z,2.53
2022-11-24T02:48:10.941Z,1.50
2022-11-24T02:50:37.738Z,1.80
2022-11-24T02:53:04.247Z,1.48
2022-11-24T02:55:30.750Z,1.42
2022-11-24T02:57:57.420Z,1.15
2022-11-24T03:00:24.063Z,1.70
2022-11-24T03:02:50.864Z,1.43
2022-11-24T03:05:17.950Z,1.35
2022-11-24T03:07:44.683Z,2.72
2022-11-24T03:10:11.228Z,1.30
2022-11-24T03:12:37.767Z,1.48
2022-11-24T03:15:17.441Z,1.57
2022-11-24T03:17:44.003Z,1.80
2022-11-24T03:20:11.014Z,1.73
2022-11-24T03:22:37.816Z,1.35
2022-11-24T03:25:04.845Z,1.83
2022-11-24T03:27:31.900Z,1.50
2022-11-24T03:29:58.489Z,1.75
2022-11-24T03:32:25.553Z,1.90
2022-11-24T03:34:52.099Z,0.93
2022-11-24T03:37:18.819Z,1.17
2022-11-24T03:39:45.350Z,1.00
2022-11-24T03:42:11.928Z,1.50
2022-11-24T03:44:38.429Z,1.63
2022-11-24T03:47:04.957Z,1.77
2022-11-24T03:49:31.619Z,1.83
2022-11-24T03:51:59.864Z,1.43
2022-11-24T03:54:29.172Z,1.70
2022-11-24T03:56:56.149Z,2.15
2022-11-24T03:59:22.704Z,1.85
2022-11-24T04:01:49.271Z,1.90
2022-11-24T04:04:15.838Z,1.47
2022-11-24T04:06:42.395Z,1.52
2022-11-24T04:09:09.248Z,1.70
2022-11-24T04:11:54.353Z,1.80
2022-11-24T04:14:21.032Z,1.67
2022-11-24T04:16:47.518Z,1.80
2022-11-24T04:19:13.963Z,1.75
2022-11-24T04:21:40.487Z,1.38
2022-11-24T04:24:07.042Z,1.92
2022-11-24T04:26:33.450Z,1.73
2022-11-24T04:28:59.861Z,1.60
2022-11-24T04:31:26.398Z,1.90
2022-11-24T04:33:52.888Z,1.63
2022-11-24T04:36:19.343Z,1.40
2022-11-24T04:39:24.540Z,2.03
2022-11-24T04:41:32.248Z,1.13
2022-11-24T04:43:58.835Z,1.75
2022-11-24T04:46:25.382Z,1.70
2022-11-24T04:48:51.937Z,2.03
2022-11-24T04:51:18.458Z,1.92
2022-11-24T04:53:45.007Z,1.80
2022-11-24T04:56:11.426Z,2.95
2022-11-24T04:58:37.881Z,1.83
2022-11-24T05:01:07.295Z,2.30
2022-11-24T05:03:34.244Z,1.40
2022-11-24T05:06:00.832Z,2.63
2022-11-24T05:08:27.304Z,2.13
2022-11-24T05:10:53.772Z,1.95
2022-11-24T05:13:20.222Z,1.90
2022-11-24T05:15:46.714Z,2.00
2022-11-24T05:18:17.276Z,1.67
2022-11-24T05:20:46.553Z,1.48
2022-11-24T05:23:13.000Z,1.40
2022-11-24T05:25:40.529Z,1.25
2022-11-24T05:28:10.195Z,0.82
2022-11-24T05:30:38.839Z,0.87
2022-11-24T05:33:12.184Z,0.75
2022-11-24T05:35:38.724Z,0.93
2022-11-24T05:38:05.237Z,0.73
2022-11-24T05:40:31.707Z,1.02
2022-11-24T05:42:58.150Z,0.60
2022-11-24T05:45:24.628Z,0.60
2022-11-24T05:47:51.548Z,0.50
2022-11-24T05:50:19.830Z,0.60
2022-11-24T05:52:46.765Z,0.47
2022-11-24T05:55:15.005Z,0.80
2022-11-24T05:57:42.243Z,0.40
2022-11-24T06:00:09.967Z,0.32
2022-11-24T06:02:36.481Z,0.40
2022-11-24T06:05:03.107Z,0.70
2022-11-24T06:07:29.622Z,0.50
2022-11-24T06:09:56.082Z,0.40
2022-11-24T06:12:22.686Z,0.50
2022-11-24T06:14:49.137Z,0.50
2022-11-24T06:17:15.541Z,0.90
2022-11-24T06:19:42.396Z,1.47
2022-11-24T06:22:08.941Z,1.08
2022-11-24T06:24:35.611Z,1.65
2022-11-24T06:27:02.309Z,0.90
2022-11-24T06:29:28.722Z,0.82
2022-11-24T06:31:55.273Z,1.10
2022-11-24T06:34:21.841Z,0.88
2022-11-24T06:36:48.330Z,0.90
2022-11-24T06:39:14.794Z,1.15
2022-11-24T06:41:41.192Z,0.90
2022-11-24T06:44:07.616Z,1.10
2022-11-24T06:46:34.067Z,1.05
2022-11-24T06:49:00.676Z,1.45
2022-11-24T06:51:27.742Z,1.20
2022-11-24T06:53:55.262Z,1.55
2022-11-24T06:56:22.102Z,1.40
2022-11-24T06:58:50.801Z,1.30
2022-11-24T07:01:23.102Z,1.48
2022-11-24T07:03:50.626Z,1.55
2022-11-24T07:06:18.271Z,1.70
2022-11-24T07:08:45.050Z,2.33
2022-11-24T07:11:15.583Z,2.20
2022-11-24T07:13:43.272Z,2.42
2022-11-24T07:16:18.039Z,2.42
2022-11-24T07:18:46.749Z,2.35
2022-11-24T07:21:13.719Z,3.50
2022-11-24T07:23:40.163Z,2.92
2022-11-24T07:26:08.388Z,3.83
2022-11-24T07:28:36.539Z,3.78
2022-11-24T07:31:07.614Z,4.20
2022-11-24T07:33:34.497Z,3.60
2022-11-24T07:36:02.041Z,3.88
2022-11-24T07:38:30.229Z,4.60
2022-11-24T07:41:06.880Z,4.10
2022-11-24T07:43:35.437Z,4.15
2022-11-24T07:46:02.790Z,4.00
2022-11-24T07:48:29.590Z,4.68
2022-11-24T07:51:00.443Z,3.90
2022-11-24T07:53:27.260Z,3.75
2022-11-24T07:56:00.250Z,4.05
2022-11-24T07:58:33.181Z,4.17
2022-11-24T08:01:00.699Z,3.80
2022-11-24T08:03:27.993Z,3.80
2022-11-24T08:08:46.403Z,4.07
2022-11-24T08:11:16.557Z,3.77
2022-11-24T08:13:43.169Z,3.13
2022-11-24T08:16:17.764Z,3.75
2022-11-24T08:18:50.104Z,4.00
2022-11-24T08:21:16.800Z,3.13
2022-11-24T08:23:43.287Z,3.93
2022-11-24T08:26:17.836Z,4.25
2022-11-24T08:28:46.798Z,3.28
2022-11-24T08:31:15.926Z,3.30
2022-11-24T08:33:42.816Z,4.47
2022-11-24T08:36:13.710Z,3.73
2022-11-24T08:38:40.779Z,3.60
2022-11-24T08:41:10.852Z,3.38
2022-11-24T08:43:37.499Z,3.65
2022-11-24T08:46:08.896Z,3.80
2022-11-24T08:48:35.517Z,3.10
2022-11-24T08:51:12.141Z,3.38
2022-11-24T08:53:39.697Z,3.28
2022-11-24T08:56:07.592Z,3.90
2022-11-24T08:58:34.707Z,3.20
2022-11-24T09:01:27.930Z,3.70
2022-11-24T09:03:54.674Z,3.10
2022-11-24T09:06:24.821Z,3.25
2022-11-24T09:08:53.997Z,2.90
2022-11-24T09:11:20.583Z,3.53
2022-11-24T09:13:47.502Z,2.90
2022-11-24T09:16:17.518Z,2.88
2022-11-24T09:18:44.108Z,3.05
2022-11-24T09:21:13.323Z,3.15
2022-11-24T09:23:40.701Z,2.47
2022-11-24T09:26:13.205Z,2.33
2022-11-24T09:28:40.369Z,2.63
2022-11-24T09:31:10.299Z,2.70
2022-11-24T09:33:37.279Z,2.88
2022-11-24T09:36:05.018Z,2.50
2022-11-24T09:38:31.759Z,2.33
2022-11-24T09:41:15.190Z,2.53
2022-11-24T09:43:47.665Z,1.85
2022-11-24T09:46:23.141Z,2.22
2022-11-24T09:48:54.917Z,2.75
2022-11-24T09:51:25.721Z,2.90
2022-11-24T09:54:02.288Z,2.08
2022-11-24T09:56:34.392Z,2.03
2022-11-24T09:59:05.191Z,1.52
2022-11-24T10:01:37.412Z,2.38
2022-11-24T10:04:11.078Z,1.60
2022-11-24T10:07:01.077Z,1.80
2022-11-24T10:09:53.247Z,1.90
2022-11-24T10:12:35.917Z,1.90
2022-11-24T10:15:25.594Z,1.50
2022-11-24T10:18:00.899Z,1.57
2022-11-24T10:20:30.488Z,1.58
2022-11-24T10:23:12.195Z,1.77
2022-11-24T10:25:59.414Z,1.90
2022-11-24T10:28:39.973Z,1.85
2022-11-24T10:31:41.130Z,1.73
2022-11-24T10:34:16.057Z,2.03
2022-11-24T10:37:16.135Z,1.50
2022-11-24T10:39:59.889Z,1.63
2022-11-24T10:42:38.707Z,1.83
2022-11-24T10:45:17.582Z,1.43
2022-11-24T10:47:45.131Z,1.38
2022-11-24T10:50:27.775Z,2.20
2022-11-24T10:53:00.096Z,1.63
2022-11-24T10:55:26.621Z,1.67
2022-11-24T10:57:53.091Z,1.87
2022-11-24T11:00:19.437Z,1.63
2022-11-24T11:02:48.211Z,1.35
2022-11-24T11:05:33.498Z,2.92
2022-11-24T11:08:21.782Z,1.73
2022-11-24T11:11:07.334Z,1.47
2022-11-24T11:13:33.887Z,1.80
2022-11-24T11:16:00.445Z,1.55
2022-11-24T11:18:34.060Z,1.92
2022-11-24T11:21:02.457Z,1.20
2022-11-24T11:23:32.507Z,1.47
2022-11-24T11:26:17.612Z,1.52
2022-11-24T11:34:51.032Z,1.45
2022-11-24T11:37:18.946Z,1.53
2022-11-24T11:39:50.415Z,1.50
2022-11-24T11:43:01.403Z,2.15
2022-11-24T11:45:43.649Z,2.17
2022-11-24T11:48:25.200Z,1.70
2022-11-24T11:51:22.414Z,2.00
2022-11-24T11:53:54.420Z,1.70
2022-11-24T11:56:34.906Z,1.73
2022-11-24T11:59:26.255Z,2.10
2022-11-24T12:02:11.499Z,1.50
2022-11-24T12:05:02.019Z,2.10
2022-11-24T12:07:36.656Z,1.70
2022-11-24T12:10:12.055Z,2.15
2022-11-24T12:12:48.878Z,1.80
2022-11-24T12:15:32.747Z,2.28
2022-11-24T12:18:56.540Z,2.03
2022-11-24T12:21:32.443Z,2.33
2022-11-24T12:24:11.009Z,1.77
2022-11-24T12:26:40.654Z,1.95
2022-11-24T12:29:34.356Z,1.45
2022-11-24T12:32:39.333Z,2.10
2022-11-24T12:35:05.890Z,1.90
2022-11-24T12:37:51.219Z,1.95
2022-11-24T12:40:35.324Z,1.98
2022-11-24T12:43:04.897Z,2.40
2022-11-24T12:45:44.795Z,1.93
2022-11-24T12:48:32.006Z,1.98
2022-11-24T12:50:59.801Z,1.67
2022-11-24T12:53:31.372Z,1.90
2022-11-24T12:56:07.567Z,2.47
2022-11-24T12:58:57.836Z,1.23
2022-11-24T13:01:46.042Z,1.95
2022-11-24T13:04:29.552Z,2.17
2022-11-24T13:07:18.279Z,2.33
2022-11-24T13:13:17.763Z,1.90
2022-11-24T13:16:35.084Z,1.98
2022-11-24T13:19:15.076Z,2.28
2022-11-24T13:21:41.564Z,2.10
2022-11-24T13:24:17.491Z,2.67
2022-11-24T13:26:50.627Z,2.27
2022-11-24T13:29:37.612Z,2.22
2022-11-24T13:32:04.035Z,1.95
2022-11-24T13:34:39.472Z,2.55
2022-11-24T13:37:34.465Z,1.50
2022-11-24T13:40:11.693Z,2.13
2022-11-24T13:42:57.214Z,1.42
2022-11-24T13:45:38.941Z,2.17
2022-11-24T13:48:21.205Z,2.40
2022-11-24T13:50:51.369Z,1.65
2022-11-24T13:53:35.049Z,2.20
2022-11-24T13:56:13.668Z,2.08
2022-11-24T13:58:42.863Z,2.17
2022-11-24T14:01:12.406Z,2.25
2022-11-24T14:03:55.445Z,1.85
2022-11-24T14:06:41.954Z,2.83
2022-11-24T14:09:23.011Z,1.83
2022-11-24T14:12:08.161Z,1.83
2022-11-24T14:14:35.129Z,1.65
2022-11-24T14:17:14.610Z,2.17
2022-11-24T14:19:41.752Z,2.80
2022-11-24T14:22:36.450Z,2.30
2022-11-24T14:25:03.759Z,1.50
2022-11-24T14:27:38.443Z,2.03
2022-11-24T14:30:08.160Z,2.35
2022-11-24T14:32:34.656Z,1.57
2022-11-24T14:35:01.296Z,2.17
2022-11-24T14:37:27.829Z,2.45
2022-11-24T14:39:54.264Z,1.98
2022-11-24T14:42:25.009Z,1.33
2022-11-24T14:44:56.627Z,2.00
2022-11-24T14:47:37.338Z,2.10
2022-11-24T14:50:12.728Z,1.90
2022-11-24T14:52:50.634Z,1.92
2022-11-24T14:55:31.995Z,1.30
2022-11-24T14:57:59.748Z,1.87
2022-11-24T15:00:31.597Z,1.40
2022-11-24T15:03:01.204Z,1.85
2022-11-24T15:06:00.967Z,2.08
2022-11-24T15:08:33.361Z,1.85
2022-11-24T15:11:02.261Z,1.67
2022-11-24T15:13:32.922Z,2.03
2022-11-24T15:16:23.122Z,1.50
2022-11-24T15:18:58.227Z,1.67
2022-11-24T15:21:33.736Z,1.83
2022-11-24T15:24:06.442Z,1.73
2022-11-24T15:26:36.901Z,2.47
2022-11-24T15:29:04.884Z,2.10
2022-11-24T15:31:32.022Z,2.40
2022-11-24T15:33:58.561Z,2.92
2022-11-24T15:36:24.963Z,3.07
2022-11-24T15:38:52.246Z,2.28
2022-11-24T15:41:27.635Z,3.17
2022-11-24T15:43:59.332Z,5.32
2022-11-24T15:46:27.564Z,3.28
2022-11-24T15:48:55.140Z,2.97
2022-11-24T15:51:23.686Z,3.95
2022-11-24T15:54:00.411Z,3.05
2022-11-24T15:56:35.668Z,3.80
2022-11-24T15:59:02.706Z,2.33
2022-11-24T16:01:32.363Z,2.33
2022-11-24T16:03:59.208Z,2.72
2022-11-24T16:06:25.840Z,2.00
2022-11-24T16:08:55.759Z,2.15
2022-11-24T16:11:22.985Z,2.28
2022-11-24T16:13:53.253Z,2.70
2022-11-24T16:16:22.069Z,2.05
2022-11-24T16:18:48.585Z,2.00
2022-11-24T16:21:15.210Z,3.90
2022-11-24T16:23:41.736Z,6.80
2022-11-24T16:26:08.394Z,8.00
2022-11-24T16:28:35.146Z,8.00
2022-11-24T16:31:01.627Z,6.60
2022-11-24T16:33:31.452Z,5.60
2022-11-24T16:35:57.966Z,4.38
2022-11-24T16:38:24.456Z,9.30
2022-11-24T16:40:56.307Z,6.82
2022-11-24T16:43:24.459Z,3.92
2022-11-24T16:46:03.348Z,4.78
2022-11-24T16:48:34.860Z,2.70
2022-11-24T16:51:06.442Z,2.97
2022-11-24T16:53:32.865Z,3.60
2022-11-24T16:55:59.407Z,3.80
2022-11-24T16:58:25.834Z,4.43
2022-11-24T17:00:52.345Z,4.07
2022-11-24T17:03:19.199Z,3.73
2022-11-24T17:05:56.905Z,2.78
2022-11-24T17:08:23.401Z,3.10
2022-11-24T17:10:49.814Z,2.92
2022-11-24T17:13:16.253Z,3.92
2022-11-24T17:15:47.243Z,4.27
2022-11-24T17:18:24.595Z,3.55
2022-11-24T17:20:51.525Z,2.83
2022-11-24T17:23:19.617Z,3.28
2022-11-24T17:25:46.271Z,3.45
2022-11-24T17:28:12.739Z,3.13
2022-11-24T17:30:39.155Z,2.92
2022-11-24T17:33:05.855Z,3.58
2022-11-24T17:35:34.120Z,2.75
2022-11-24T17:38:01.303Z,2.63
2022-11-24T17:40:31.353Z,2.20
2022-11-24T17:43:01.335Z,2.47
2022-11-24T17:45:29.474Z,2.30
2022-11-24T17:48:00.806Z,2.10
2022-11-24T17:50:27.408Z,2.60
2022-11-24T17:52:54.370Z,2.83
2022-11-24T17:55:21.668Z,2.50
2022-11-24T17:57:48.122Z,2.33
2022-11-24T18:00:15.129Z,3.38
2022-11-24T18:02:41.596Z,2.33
2022-11-24T18:05:08.623Z,3.30
2022-11-24T18:07:36.621Z,4.30
2022-11-24T18:10:03.565Z,3.63
2022-11-24T18:12:30.125Z,3.10
2022-11-24T18:14:56.535Z,2.30
2022-11-24T18:17:22.951Z,3.63
2022-11-24T18:19:49.395Z,2.53
2022-11-24T18:22:15.892Z,2.90
2022-11-24T18:24:42.333Z,2.13
2022-11-24T18:27:08.778Z,1.55
2022-11-24T18:29:35.205Z,2.73
2022-11-24T18:32:01.996Z,2.58
2022-11-24T18:34:28.434Z,2.30
2022-11-24T18:36:54.835Z,2.40
2022-11-24T18:39:21.348Z,2.10
2022-11-24T18:41:47.863Z,2.93
2022-11-24T18:44:14.307Z,2.85
2022-11-24T18:46:40.796Z,2.58
2022-11-24T18:49:07.534Z,2.75
2022-11-24T18:51:34.127Z,2.95
2022-11-24T18:54:02.888Z,2.60
2022-11-24T18:56:29.492Z,2.17
2022-11-24T18:58:56.810Z,2.22
2022-11-24T19:01:28.421Z,3.10
2022-11-24T19:03:57.317Z,2.90
2022-11-24T19:06:32.952Z,2.80
2022-11-24T19:09:02.568Z,3.05
2022-11-24T19:11:36.763Z,2.80
2022-11-24T19:14:05.798Z,3.13
2022-11-24T19:16:33.061Z,2.60
2022-11-24T19:19:00.373Z,2.27
2022-11-24T19:21:28.262Z,2.63
2022-11-24T19:23:58.515Z,2.10
2022-11-24T19:26:27.922Z,3.25
2022-11-24T19:28:54.378Z,2.78
2022-11-24T19:31:20.960Z,2.93
2022-11-24T19:33:47.665Z,5.65
2022-11-24T19:36:19.159Z,3.40
2022-11-24T19:38:53.338Z,3.42
2022-11-24T19:41:22.126Z,3.45
2022-11-24T19:43:48.708Z,2.97
2022-11-24T19:46:17.618Z,2.50
2022-11-24T19:48:46.603Z,1.73
2022-11-24T19:51:24.828Z,2.42
2022-11-24T19:53:52.111Z,3.45
2022-11-24T19:56:24.010Z,2.50
2022-11-24T19:58:51.591Z,3.08
2022-11-24T20:01:27.177Z,2.58
2022-11-24T20:04:02.962Z,1.95
2022-11-24T20:06:32.469Z,1.70
2022-11-24T20:09:00.496Z,1.90
2022-11-24T20:11:27.888Z,2.40
2022-11-24T20:13:54.701Z,1.83
2022-11-24T20:16:26.540Z,2.42
2022-11-24T20:18:55.278Z,2.83
2022-11-24T20:21:24.021Z,3.47
2022-11-24T20:23:56.174Z,2.20
2022-11-24T20:26:25.481Z,2.20
2022-11-24T20:28:54.371Z,2.13
2022-11-24T20:31:24.566Z,2.15
2022-11-24T20:33:51.454Z,2.37
2022-11-24T20:36:23.899Z,2.97
2022-11-24T20:38:52.021Z,2.30
2022-11-24T20:41:24.379Z,1.92
2022-11-24T20:43:52.359Z,2.42
2022-11-24T20:46:24.768Z,1.83
2022-11-24T20:48:51.741Z,1.90
2022-11-24T20:51:23.858Z,1.98
2022-11-24T20:53:52.823Z,2.35
2022-11-24T20:56:23.003Z,1.73
2022-11-24T20:58:50.315Z,1.60
2022-11-24T21:01:25.309Z,1.85
2022-11-24T21:03:53.986Z,2.47
2022-11-24T21:06:20.420Z,2.03
2022-11-24T21:08:46.858Z,2.20
2022-11-24T21:11:14.362Z,2.07
2022-11-24T21:13:44.258Z,1.80
2022-11-24T21:16:18.370Z,1.60
2022-11-24T21:18:47.151Z,2.42
2022-11-24T21:21:14.139Z,2.28
2022-11-24T21:23:40.797Z,2.97
2022-11-24T21:26:13.046Z,2.50
2022-11-24T21:28:43.939Z,2.47
2022-11-24T21:31:13.106Z,1.85
2022-11-24T21:33:45.366Z,1.80
2022-11-24T21:36:14.602Z,2.87
2022-11-24T21:38:42.653Z,2.20
2022-11-24T21:41:11.796Z,2.15
2022-11-24T21:43:38.646Z,2.70
2022-11-24T21:46:07.394Z,1.95
2022-11-24T21:48:35.508Z,2.50
2022-11-24T21:51:03.892Z,2.33
2022-11-24T21:53:32.395Z,2.83
2022-11-24T21:56:01.370Z,1.88
2022-11-24T21:58:29.307Z,2.60
2022-11-24T22:01:02.939Z,1.80
2022-11-24T22:03:29.471Z,2.47
2022-11-24T22:05:57.687Z,2.45
2022-11-24T22:08:25.702Z,1.90
2022-11-24T22:10:52.672Z,2.50
2022-11-24T22:13:19.952Z,2.20
2022-11-24T22:15:46.560Z,1.83
2022-11-24T22:18:12.995Z,1.98
2022-11-24T22:20:39.489Z,1.95
2022-11-24T22:23:06.049Z,2.60
2022-11-24T22:25:33.431Z,1.80
2022-11-24T22:28:00.034Z,2.58
2022-11-24T22:30:26.478Z,2.40
2022-11-24T22:32:53.233Z,1.98
2022-11-24T22:35:19.670Z,2.90
2022-11-24T22:37:46.078Z,2.13
2022-11-24T22:40:12.629Z,2.13
2022-11-24T22:42:39.019Z,2.13
2022-11-24T22:45:06.148Z,3.10
2022-11-24T22:47:32.710Z,2.55
2022-11-24T22:49:59.125Z,2.70
2022-11-24T22:52:25.559Z,2.45
2022-11-24T22:54:51.967Z,2.05
2022-11-24T22:57:18.433Z,2.15
2022-11-24T22:59:44.922Z,1.90
2022-11-24T23:02:11.341Z,1.93
2022-11-24T23:04:37.969Z,2.38
2022-11-24T23:07:04.580Z,2.67
2022-11-24T23:09:30.992Z,2.13
2022-11-24T23:11:57.415Z,2.00
2022-11-24T23:14:23.830Z,2.43
2022-11-24T23:16:50.265Z,2.20
2022-11-24T23:19:16.745Z,1.77
2022-11-24T23:21:43.176Z,2.00
2022-11-24T23:24:10.680Z,2.30
2022-11-24T23:26:40.032Z,2.53
2022-11-24T23:29:06.976Z,1.98
2022-11-24T23:31:33.887Z,2.70
2022-11-24T23:34:02.326Z,2.15
2022-11-24T23:36:29.271Z,1.92
2022-11-24T23:38:55.856Z,2.57
2022-11-24T23:41:25.224Z,2.28
2022-11-24T23:43:52.508Z,1.75
2022-11-24T23:46:21.212Z,1.60
2022-11-24T23:48:49.103Z,1.75
2022-11-24T23:51:19.774Z,2.13
2022-11-24T23:53:46.506Z,2.63
2022-11-24T23:56:16.096Z,1.70
2022-11-24T23:58:42.653Z,2.03
